Time;durP1;ratioP1;P1;durP2;ratioP2;P2;SDS_P1;SDS_P2;PMS_P1;PMS_P2;Temp;Humidity;BMP_temperature;BMP_pressure;BME280_temperature;BME280_humidity;BME280_pressure;Samples;Min_cycle;Max_cycle;Signal;HPM_P1;HPM_P2
2022/04/25 00:02:00;;;;;;;44.40;15.70;;;;;;;6.68;100.00;98054.50;103449;1303;23612;-29
2022/04/25 00:04:29;;;;;;;33.00;14.90;;;;;;;6.67;100.00;98050.48;103448;1303;22498;-32
2022/04/25 00:06:58;;;;;;;34.80;13.30;;;;;;;6.70;100.00;98051.23;103427;1303;22765;-30
2022/04/25 00:09:27;;;;;;;61.90;14.20;;;;;;;6.70;100.00;98053.76;103463;1303;24234;-26
2022/04/25 00:11:56;;;;;;;49.60;16.60;;;;;;;6.64;100.00;98051.38;103451;1303;22508;-30
2022/04/25 00:14:25;;;;;;;36.10;13.80;;;;;;;6.60;100.00;98056.26;103453;1303;22655;-25
2022/04/25 00:16:56;;;;;;;53.60;16.70;;;;;;;6.58;100.00;98057.04;103463;1303;23760;-30
2022/04/25 00:19:25;;;;;;;44.60;17.60;;;;;;;6.51;100.00;98061.13;103311;1304;22510;-25
2022/04/25 00:21:54;;;;;;;62.70;17.20;;;;;;;6.44;100.00;98061.66;103436;1303;23612;-25
2022/04/25 00:24:23;;;;;;;40.70;16.70;;;;;;;6.37;100.00;98068.95;103430;1303;24248;-25
2022/04/25 00:26:52;;;;;;;44.80;13.90;;;;;;;6.29;100.00;98073.08;103414;1303;24976;-29
2022/04/25 00:29:21;;;;;;;25.20;13.00;;;;;;;6.21;100.00;98072.55;103463;1303;25021;-25
2022/04/25 00:31:50;;;;;;;77.00;12.70;;;;;;;6.15;100.00;98071.23;103463;1303;22502;-25
2022/04/25 00:34:19;;;;;;;55.30;14.50;;;;;;;6.11;100.00;98067.52;103419;1303;22511;-25
2022/04/25 00:36:48;;;;;;;25.50;11.70;;;;;;;6.09;100.00;98063.17;103417;1303;24003;-25
2022/04/25 00:39:17;;;;;;;34.70;12.20;;;;;;;6.04;100.00;98064.48;103407;1303;22930;-29
2022/04/25 00:41:46;;;;;;;59.40;11.60;;;;;;;6.00;100.00;98064.95;103435;1303;24292;-29
2022/04/25 00:44:16;;;;;;;35.70;10.30;;;;;;;5.94;100.00;98069.31;103389;1303;22506;-26
2022/04/25 00:46:48;;;;;;;63.10;10.40;;;;;;;5.91;100.00;98065.11;103459;1303;23753;-30
2022/04/25 00:49:17;;;;;;;24.20;10.40;;;;;;;5.86;100.00;98068.05;103443;1303;22770;-29
2022/04/25 00:51:47;;;;;;;45.70;10.30;;;;;;;5.82;100.00;98064.77;103469;1303;22505;-25
2022/04/25 00:54:15;;;;;;;25.30;9.10;;;;;;;5.82;100.00;98062.23;103399;1303;23775;-25
2022/04/25 00:56:46;;;;;;;63.30;12.20;;;;;;;5.75;100.00;98059.16;103505;1303;23958;-29
2022/04/25 00:59:16;;;;;;;33.50;8.70;;;;;;;5.67;100.00;98056.14;103373;1303;24240;-30
2022/04/25 01:01:45;;;;;;;48.00;10.90;;;;;;;5.61;100.00;98058.86;103447;1303;23870;-30
2022/04/25 01:04:14;;;;;;;24.60;9.50;;;;;;;5.57;100.00;98050.11;103450;1303;24258;-30
2022/04/25 01:06:43;;;;;;;36.60;10.70;;;;;;;5.49;100.00;98049.73;103400;1303;25012;-25
2022/04/25 01:09:12;;;;;;;48.00;11.00;;;;;;;5.43;100.00;98051.48;103412;1303;24040;-25
2022/04/25 01:11:41;;;;;;;21.70;9.10;;;;;;;5.36;100.00;98053.19;103418;1303;24211;-29
2022/04/25 01:14:11;;;;;;;34.30;9.20;;;;;;;5.28;100.00;98052.02;103438;1303;24967;-24
2022/04/25 01:16:41;;;;;;;48.70;10.40;;;;;;;5.24;100.00;98054.89;103439;1303;26132;-29
2022/04/25 01:19:10;;;;;;;61.60;9.80;;;;;;;5.28;100.00;98056.35;103491;1302;23593;-27
2022/04/25 01:21:43;;;;;;;18.30;9.00;;;;;;;5.25;100.00;98055.42;103416;1303;22513;-24
2022/04/25 01:29:18;;;;;;;21.80;10.70;;;;;;;5.41;100.00;98050.40;103486;1303;23847;-24
2022/04/25 01:31:46;;;;;;;17.20;10.30;;;;;;;5.40;100.00;98043.96;103450;1303;26183;-32
2022/04/25 01:34:15;;;;;;;25.40;11.50;;;;;;;5.47;100.00;98039.04;103465;1303;23806;-30
2022/04/25 01:36:44;;;;;;;21.50;11.10;;;;;;;5.51;100.00;98041.35;103467;1303;24215;-30
2022/04/25 01:39:13;;;;;;;19.40;12.10;;;;;;;5.57;100.00;98040.27;103463;1303;24249;-29
2022/04/25 01:41:42;;;;;;;22.60;11.70;;;;;;;5.57;100.00;98036.75;103466;1303;25021;-32
2022/04/25 01:44:11;;;;;;;23.30;10.30;;;;;;;5.63;100.00;98040.52;103278;1304;23739;-25
2022/04/25 01:46:40;;;;;;;22.00;12.80;;;;;;;5.68;100.00;98039.47;103483;1303;23825;-25
2022/04/25 01:49:09;;;;;;;19.40;10.30;;;;;;;5.69;100.00;98037.59;103455;1303;22645;-25
2022/04/25 01:51:39;;;;;;;30.90;13.40;;;;;;;5.84;100.00;98037.93;103480;1303;24249;-25
2022/04/25 01:54:08;;;;;;;25.30;13.40;;;;;;;5.84;100.00;98037.06;103380;1303;24727;-23
2022/04/25 01:56:37;;;;;;;22.20;12.00;;;;;;;5.76;100.00;98042.03;103489;1303;22502;-29
2022/04/25 01:59:06;;;;;;;24.90;11.60;;;;;;;5.89;100.00;98043.29;103446;1303;22514;-25
2022/04/25 02:01:35;;;;;;;27.70;12.60;;;;;;;5.85;100.00;98047.36;103467;1303;24317;-25
2022/04/25 02:04:04;;;;;;;24.50;12.20;;;;;;;5.90;100.00;98046.86;103277;1303;23850;-29
2022/04/25 02:06:33;;;;;;;25.90;12.00;;;;;;;5.96;100.00;98044.23;103494;1303;23613;-30
2022/04/25 02:09:02;;;;;;;20.60;12.20;;;;;;;5.93;100.00;98033.39;103464;1303;22655;-30
2022/04/25 02:11:31;;;;;;;24.90;12.20;;;;;;;6.01;100.00;98034.33;103433;1303;22514;-24
2022/04/25 02:14:00;;;;;;;20.20;9.60;;;;;;;6.02;100.00;98029.54;103366;1303;22649;-26
2022/04/25 02:16:29;;;;;;;27.00;14.70;;;;;;;6.05;100.00;98031.10;103458;1303;25095;-26
2022/04/25 02:18:58;;;;;;;26.30;13.40;;;;;;;6.04;100.00;98034.83;103278;1303;22667;-26
2022/04/25 02:21:27;;;;;;;27.50;16.10;;;;;;;6.05;100.00;98041.52;103469;1303;25085;-25
2022/04/25 02:23:56;;;;;;;31.40;14.60;;;;;;;6.11;100.00;98049.61;103390;1303;22893;-25
2022/04/25 02:26:25;;;;;;;51.00;15.00;;;;;;;6.14;100.00;98054.86;103490;1303;23645;-25
2022/04/25 02:28:54;;;;;;;23.20;11.20;;;;;;;6.14;100.00;98058.92;103461;1303;24302;-25
2022/04/25 02:31:24;;;;;;;20.30;10.30;;;;;;;6.15;100.00;98059.66;103494;1303;22514;-25
2022/04/25 02:33:53;;;;;;;19.40;12.30;;;;;;;6.22;100.00;98061.70;103414;1303;23920;-25
2022/04/25 02:36:24;;;;;;;31.80;14.80;;;;;;;6.25;100.00;98063.88;103429;1303;24351;-29
2022/04/25 02:38:52;;;;;;;41.00;13.00;;;;;;;6.26;100.00;98068.14;103443;1303;24251;-25
2022/04/25 02:41:21;;;;;;;34.70;13.10;;;;;;;6.27;100.00;98070.52;103437;1303;22514;-29
2022/04/25 02:43:50;;;;;;;35.50;12.20;;;;;;;6.26;100.00;98071.80;103433;1303;23747;-25
2022/04/25 02:46:19;;;;;;;25.10;12.80;;;;;;;6.31;100.00;98067.02;103448;1303;24237;-30
2022/04/25 02:48:48;;;;;;;26.50;10.60;;;;;;;6.34;100.00;98064.05;103454;1303;22768;-24
2022/04/25 02:51:17;;;;;;;20.20;11.40;;;;;;;6.35;100.00;98074.23;103469;1303;24319;-27
2022/04/25 02:53:46;;;;;;;22.30;11.80;;;;;;;6.31;100.00;98070.74;103315;1304;24211;-30
2022/04/25 02:56:15;;;;;;;42.50;10.20;;;;;;;6.34;100.00;98068.19;103428;1303;24292;-30
2022/04/25 02:58:44;;;;;;;29.90;9.70;;;;;;;6.37;100.00;98067.30;103465;1303;22499;-30
2022/04/25 03:01:13;;;;;;;32.70;11.20;;;;;;;6.40;100.00;98068.79;103506;1303;23769;-28
2022/04/25 03:03:42;;;;;;;32.90;14.00;;;;;;;6.39;100.00;98072.56;103452;1302;25027;-27
2022/04/25 03:06:11;;;;;;;18.60;10.90;;;;;;;6.38;100.00;98079.02;103403;1303;25099;-27
2022/04/25 03:08:40;;;;;;;32.30;11.70;;;;;;;6.41;100.00;98077.45;103468;1303;22738;-25
2022/04/25 03:11:09;;;;;;;31.40;12.20;;;;;;;6.40;100.00;98081.91;103453;1303;24023;-25
2022/04/25 03:13:38;;;;;;;14.60;9.30;;;;;;;6.37;100.00;98078.43;103456;1303;24301;-30
2022/04/25 03:16:07;;;;;;;21.60;11.10;;;;;;;6.41;100.00;98080.45;103393;1303;23614;-25
2022/04/25 03:18:37;;;;;;;19.00;10.20;;;;;;;6.42;100.00;98082.27;103438;1303;22513;-25
2022/04/25 03:21:06;;;;;;;26.20;13.80;;;;;;;6.45;100.00;98083.64;103475;1303;23164;-24
2022/04/25 03:23:36;;;;;;;22.30;11.30;;;;;;;6.47;100.00;98085.29;103458;1303;22678;-30
2022/04/25 03:26:05;;;;;;;25.00;11.90;;;;;;;6.45;100.00;98085.01;103469;1302;24986;-30
2022/04/25 03:28:34;;;;;;;22.70;11.20;;;;;;;6.45;100.00;98089.02;103363;1303;24390;-25
2022/04/25 03:31:06;;;;;;;23.90;11.60;;;;;;;6.50;100.00;98092.03;103394;1303;24249;-25
2022/04/25 03:33:36;;;;;;;16.50;8.50;;;;;;;6.41;100.00;98090.33;103475;1303;23751;-30
2022/04/25 03:36:05;;;;;;;20.50;12.20;;;;;;;6.44;100.00;98094.64;103464;1303;24211;-30
2022/04/25 03:38:34;;;;;;;18.00;10.20;;;;;;;6.43;100.00;98099.61;103437;1303;22652;-25
2022/04/25 03:41:03;;;;;;;14.60;8.60;;;;;;;6.46;100.00;98100.06;103294;1303;24394;-25
2022/04/25 03:43:32;;;;;;;16.70;10.80;;;;;;;6.49;100.00;98098.06;103480;1303;24371;-30
2022/04/25 03:46:01;;;;;;;23.00;9.50;;;;;;;6.52;100.00;98097.77;103428;1303;22501;-30
2022/04/25 03:48:30;;;;;;;19.00;10.50;;;;;;;6.56;100.00;98099.96;103408;1303;24492;-30
2022/04/25 03:50:59;;;;;;;24.00;11.40;;;;;;;6.57;100.00;98105.14;103395;1303;24230;-30
2022/04/25 03:53:28;;;;;;;19.50;10.20;;;;;;;6.54;100.00;98104.59;103433;1303;22578;-30
2022/04/25 03:58:30;;;;;;;17.30;9.20;;;;;;;6.59;100.00;98106.69;103460;1303;24974;-25
2022/04/25 04:01:02;;;;;;;17.00;10.50;;;;;;;6.60;100.00;98113.55;103445;1303;24309;-25
2022/04/25 04:03:34;;;;;;;12.60;8.20;;;;;;;6.60;100.00;98109.29;103473;1303;24963;-30
2022/04/25 04:06:03;;;;;;;11.20;7.70;;;;;;;6.58;100.00;98108.08;103446;1303;22793;-25
2022/04/25 04:08:32;;;;;;;18.20;10.20;;;;;;;6.64;100.00;98114.38;103402;1303;23205;-30
2022/04/25 04:11:04;;;;;;;11.40;6.30;;;;;;;6.70;100.00;98110.89;103384;1303;22793;-25
2022/04/25 04:13:33;;;;;;;11.20;6.50;;;;;;;6.76;100.00;98117.52;103434;1303;25038;-24
2022/04/25 04:16:03;;;;;;;18.40;10.60;;;;;;;6.77;100.00;98119.20;103216;1303;335050;-25
2022/04/25 04:18:32;;;;;;;14.20;9.70;;;;;;;6.69;100.00;98124.70;103411;1303;22790;-30
2022/04/25 04:21:01;;;;;;;14.50;9.70;;;;;;;6.71;100.00;98128.91;103468;1303;23872;-31
2022/04/25 04:23:30;;;;;;;14.20;9.60;;;;;;;6.72;100.00;98135.49;103481;1303;24350;-30
2022/04/25 04:25:59;;;;;;;17.20;9.20;;;;;;;6.69;100.00;98139.18;103455;1303;24989;-27
2022/04/25 04:28:28;;;;;;;12.80;8.90;;;;;;;6.68;100.00;98139.63;103420;1303;24294;-32
2022/04/25 04:30:57;;;;;;;23.40;11.90;;;;;;;6.82;100.00;98138.50;103388;1302;24993;-30
2022/04/25 04:33:26;;;;;;;14.30;9.30;;;;;;;6.95;100.00;98141.14;103403;1302;23117;-25
2022/04/25 04:38:27;;;;;;;13.70;9.20;;;;;;;6.66;100.00;98150.16;103417;1303;22763;-30
2022/04/25 04:40:56;;;;;;;14.70;8.50;;;;;;;6.57;100.00;98149.42;103429;1303;23757;-24
2022/04/25 04:43:25;;;;;;;15.00;9.50;;;;;;;6.72;100.00;98151.79;103462;1303;24234;-25
2022/04/25 04:45:54;;;;;;;14.00;9.10;;;;;;;6.62;100.00;98154.10;103429;1303;23609;-27
2022/04/25 04:48:24;;;;;;;22.90;13.60;;;;;;;6.65;100.00;98157.52;103420;1303;23273;-24
2022/04/25 04:50:55;;;;;;;16.20;9.70;;;;;;;6.68;100.00;98155.88;103280;1303;25120;-29
2022/04/25 04:53:24;;;;;;;19.20;11.80;;;;;;;6.74;100.00;98159.51;103466;1303;23751;-31
2022/04/25 04:55:53;;;;;;;14.30;9.10;;;;;;;6.69;100.00;98163.85;103445;1303;25089;-24
2022/04/25 04:58:22;;;;;;;10.60;7.70;;;;;;;6.69;100.00;98166.77;103427;1303;24243;-25
2022/04/25 05:00:51;;;;;;;12.80;9.30;;;;;;;6.66;100.00;98170.13;103319;1303;22511;-30
2022/04/25 05:03:20;;;;;;;17.10;9.30;;;;;;;6.69;100.00;98170.05;103412;1303;24237;-29
2022/04/25 05:05:49;;;;;;;11.30;8.70;;;;;;;6.73;100.00;98172.97;103436;1303;23738;-25
2022/04/25 05:08:19;;;;;;;14.40;10.30;;;;;;;6.82;100.00;98170.16;103489;1303;23652;-25
2022/04/25 05:10:48;;;;;;;13.00;8.90;;;;;;;6.92;100.00;98174.77;103461;1303;23903;-26
2022/04/25 05:13:17;;;;;;;12.10;8.90;;;;;;;6.92;100.00;98178.27;103270;1303;23199;-24
2022/04/25 05:15:47;;;;;;;11.80;8.80;;;;;;;7.00;100.00;98176.48;103420;1303;24220;-30
2022/04/25 05:18:16;;;;;;;12.00;9.80;;;;;;;7.04;100.00;98176.48;103432;1302;24357;-29
2022/04/25 05:20:45;;;;;;;10.10;8.00;;;;;;;7.07;100.00;98178.27;103514;1303;24247;-27
2022/04/25 05:23:14;;;;;;;12.60;9.00;;;;;;;7.12;100.00;98184.23;103422;1303;23767;-27
2022/04/25 05:25:43;;;;;;;11.90;9.00;;;;;;;7.18;100.00;98181.41;103456;1303;22821;-25
2022/04/25 05:28:12;;;;;;;15.40;10.70;;;;;;;7.22;100.00;98178.61;103489;1303;24484;-25
2022/04/25 05:30:42;;;;;;;13.80;10.00;;;;;;;7.24;100.00;98179.03;103494;1302;24276;-25
2022/04/25 05:33:12;;;;;;;9.90;7.60;;;;;;;7.20;100.00;98181.63;103475;1303;25012;-25
2022/04/25 05:35:42;;;;;;;10.60;8.90;;;;;;;7.25;100.00;98181.20;103437;1303;22520;-25
2022/04/25 05:38:11;;;;;;;12.50;8.20;;;;;;;7.30;100.00;98179.48;103471;1303;24279;-29
2022/04/25 05:40:41;;;;;;;13.00;8.50;;;;;;;7.40;100.00;98174.88;103472;1303;22777;-26
2022/04/25 05:43:10;;;;;;;12.30;8.60;;;;;;;7.61;100.00;98176.55;103390;1303;22508;-29
2022/04/25 05:45:39;;;;;;;13.50;8.60;;;;;;;7.71;100.00;98179.66;103403;1303;24991;-25
2022/04/25 05:53:13;;;;;;;10.30;7.70;;;;;;;7.70;100.00;98247.58;103424;1303;24998;-26
2022/04/25 05:55:42;;;;;;;8.00;7.00;;;;;;;7.68;100.00;98191.25;103453;1303;22501;-29
2022/04/25 05:58:11;;;;;;;11.80;7.00;;;;;;;7.78;100.00;98187.79;103433;1303;23429;-29
2022/04/25 06:00:40;;;;;;;13.00;9.50;;;;;;;7.93;100.00;98185.90;103431;1303;23767;-32
2022/04/25 06:03:09;;;;;;;10.20;6.50;;;;;;;7.96;100.00;98189.40;103467;1303;24993;-24
2022/04/25 06:05:38;;;;;;;11.90;8.80;;;;;;;7.99;100.00;98190.41;103494;1303;24104;-25
2022/04/25 06:08:07;;;;;;;11.90;8.20;;;;;;;8.25;100.00;98192.81;103465;1303;24205;-29
2022/04/25 06:10:36;;;;;;;10.10;7.70;;;;;;;8.13;100.00;98190.64;103412;1303;25012;-25
2022/04/25 06:13:06;;;;;;;9.80;7.70;;;;;;;8.30;100.00;98192.71;103409;1303;24204;-25
2022/04/25 06:15:35;;;;;;;9.70;7.70;;;;;;;8.16;100.00;98187.78;103531;1303;24335;-26
2022/04/25 06:18:04;;;;;;;10.60;8.10;;;;;;;8.32;100.00;98189.25;103516;1303;23554;-25
2022/04/25 06:20:35;;;;;;;10.30;7.00;;;;;;;8.48;100.00;98187.50;103527;1303;23609;-25
2022/04/25 06:23:05;;;;;;;10.70;8.90;;;;;;;8.82;100.00;98188.55;103515;1303;23543;-30
2022/04/25 06:25:36;;;;;;;13.40;6.60;;;;;;;9.01;100.00;98192.88;103509;1303;24995;-26
2022/04/25 06:28:06;;;;;;;9.50;6.30;;;;;;;8.86;100.00;98195.04;103516;1303;22495;-31
2022/04/25 06:30:35;;;;;;;12.00;8.10;;;;;;;8.57;100.00;98193.74;103495;1303;24197;-25
2022/04/25 06:33:04;;;;;;;11.60;8.40;;;;;;;8.90;100.00;98193.45;103533;1303;24336;-27
2022/04/25 06:35:33;;;;;;;6.20;5.30;;;;;;;8.78;100.00;98199.48;103500;1303;24328;-30
2022/04/25 06:38:02;;;;;;;10.50;7.60;;;;;;;8.63;100.00;98195.93;103557;1303;24020;-25
2022/04/25 06:40:31;;;;;;;10.00;8.70;;;;;;;8.70;100.00;98189.73;103565;1301;22517;-25
2022/04/25 06:43:00;;;;;;;12.00;7.10;;;;;;;8.89;100.00;98193.15;103475;1303;22505;-27
2022/04/25 06:45:30;;;;;;;13.20;8.10;;;;;;;8.82;100.00;98196.62;103559;1303;22509;-32
2022/04/25 06:47:59;;;;;;;10.50;7.00;;;;;;;8.93;100.00;98200.05;103518;1302;22513;-30
2022/04/25 06:50:28;;;;;;;9.80;4.20;;;;;;;9.08;100.00;98196.74;103444;1303;24400;-25
2022/04/25 06:52:57;;;;;;;7.70;6.70;;;;;;;9.10;100.00;98192.27;103546;1303;24447;-31
2022/04/25 06:55:27;;;;;;;13.00;8.90;;;;;;;9.27;100.00;98195.73;103464;1302;22847;-25
2022/04/25 06:57:56;;;;;;;10.50;7.00;;;;;;;9.56;100.00;98201.45;103502;1303;23914;-31
2022/04/25 07:00:27;;;;;;;10.00;3.70;;;;;;;9.83;99.42;98200.42;103430;1303;24218;-31
2022/04/25 07:02:57;;;;;;;13.00;5.80;;;;;;;10.10;95.94;98205.89;103558;1303;25389;-31
2022/04/25 07:05:25;;;;;;;6.80;5.70;;;;;;;9.97;96.14;98203.50;103510;1303;24191;-27
2022/04/25 07:07:54;;;;;;;7.60;5.30;;;;;;;10.24;92.95;98210.88;103605;1303;24295;-26
2022/04/25 07:10:23;;;;;;;8.20;4.90;;;;;;;9.83;95.35;98220.06;103587;1303;24288;-30
2022/04/25 07:12:54;;;;;;;10.00;7.60;;;;;;;9.94;96.83;98220.05;103538;1303;24301;-26
2022/04/25 07:15:24;;;;;;;11.00;6.30;;;;;;;9.92;98.24;98220.19;103509;1303;24216;-26
2022/04/25 07:17:55;;;;;;;15.20;5.90;;;;;;;9.98;96.78;98221.08;103539;1303;24191;-25
2022/04/25 07:20:24;;;;;;;9.10;6.10;;;;;;;10.14;96.15;98224.74;103525;1303;24477;-28
2022/04/25 07:30:31;;;;;;;5.90;3.80;;;;;;;10.33;92.01;98231.59;103468;1303;22774;-26
2022/04/25 07:33:00;;;;;;;6.20;4.90;;;;;;;10.18;90.59;98239.79;103512;1303;24022;-30
2022/04/25 07:35:29;;;;;;;5.40;4.60;;;;;;;9.84;92.81;98241.27;103529;1303;23535;-30
2022/04/25 07:37:58;;;;;;;6.90;4.60;;;;;;;10.08;92.42;98245.25;103601;1303;24239;-26
2022/04/25 07:40:27;;;;;;;5.80;4.70;;;;;;;10.30;92.06;98243.53;103554;1303;24212;-30
2022/04/25 07:42:56;;;;;;;5.30;3.60;;;;;;;10.28;90.71;98244.83;103591;1302;24355;-26
2022/04/25 07:45:25;;;;;;;6.80;5.60;;;;;;;10.19;90.50;98250.38;103571;1302;23751;-26
2022/04/25 07:47:54;;;;;;;5.60;4.90;;;;;;;10.13;90.49;98253.33;103584;1303;23246;-30
2022/04/25 07:50:25;;;;;;;7.60;5.10;;;;;;;9.89;91.42;98256.48;103513;1303;23877;-25
2022/04/25 07:52:54;;;;;;;7.60;5.40;;;;;;;10.24;89.44;98262.13;103442;1303;24214;-30
2022/04/25 07:55:23;;;;;;;7.20;5.30;;;;;;;9.94;90.84;98263.03;103509;1303;24359;-27
2022/04/25 07:57:52;;;;;;;7.00;5.80;;;;;;;9.82;91.87;98268.92;103487;1303;24290;-31
2022/04/25 08:00:21;;;;;;;5.50;4.70;;;;;;;10.26;89.59;98270.71;103513;1303;24234;-31
2022/04/25 08:02:50;;;;;;;5.70;5.10;;;;;;;10.04;89.92;98271.19;103510;1303;22632;-25
2022/04/25 08:05:19;;;;;;;5.20;4.70;;;;;;;10.00;91.10;98274.36;103491;1303;24265;-29
2022/04/25 08:07:48;;;;;;;6.60;4.10;;;;;;;10.13;91.59;98274.75;103556;1303;22496;-25
2022/04/25 08:10:17;;;;;;;7.60;6.40;;;;;;;10.17;91.24;98279.45;103533;1303;22751;-29
2022/04/25 08:20:23;;;;;;;5.10;4.00;;;;;;;10.58;88.09;98282.32;103566;1303;23607;-31
2022/04/25 08:22:52;;;;;;;8.80;6.70;;;;;;;10.73;88.35;98284.84;103477;1303;25346;-25
2022/04/25 08:25:21;;;;;;;7.90;7.20;;;;;;;10.37;88.83;98294.30;103491;1302;23794;-29
2022/04/25 08:27:50;;;;;;;10.40;8.50;;;;;;;10.22;90.90;98297.73;103543;1303;23573;-29
2022/04/25 08:30:20;;;;;;;9.10;7.10;;;;;;;10.35;90.38;98305.31;103544;1303;24980;-25
2022/04/25 08:32:49;;;;;;;7.90;5.80;;;;;;;10.32;91.05;98306.33;103555;1303;23874;-29
2022/04/25 08:35:20;;;;;;;11.30;9.40;;;;;;;10.68;90.06;98305.96;103376;1303;24998;-28
2022/04/25 08:37:49;;;;;;;9.00;7.00;;;;;;;10.62;88.10;98316.39;103508;1303;24234;-25
2022/04/25 08:40:18;;;;;;;8.10;7.10;;;;;;;10.84;88.79;98310.85;103531;1302;22505;-30
2022/04/25 08:42:47;;;;;;;11.20;9.30;;;;;;;11.19;87.46;98317.40;103427;1303;23716;-29
2022/04/25 08:45:16;;;;;;;8.70;7.20;;;;;;;11.45;86.97;98320.84;103569;1303;24215;-27
2022/04/25 08:47:49;;;;;;;6.90;6.30;;;;;;;11.67;85.77;98321.65;103556;1303;25099;-25
2022/04/25 08:50:18;;;;;;;8.00;6.20;;;;;;;11.66;84.98;98323.29;103562;1302;22725;-25
2022/04/25 08:52:47;;;;;;;16.20;8.40;;;;;;;11.43;84.08;98330.11;103554;1303;24223;-29
2022/04/25 08:55:16;;;;;;;10.50;8.50;;;;;;;11.28;85.34;98331.73;103536;1302;23600;-25
2022/04/25 08:57:45;;;;;;;21.80;9.10;;;;;;;11.40;84.65;98332.34;103562;1303;24371;-29
2022/04/25 09:00:15;;;;;;;8.30;6.50;;;;;;;11.28;86.23;98334.36;103551;1303;24214;-24
2022/04/25 09:02:45;;;;;;;9.80;8.80;;;;;;;11.50;86.35;98335.94;103597;1303;24986;-25
2022/04/25 09:05:14;;;;;;;7.80;5.50;;;;;;;11.55;85.45;98335.56;103654;1303;24423;-26
2022/04/25 09:07:43;;;;;;;7.90;6.40;;;;;;;11.68;83.79;98337.21;103583;1303;24297;-25
2022/04/25 09:10:14;;;;;;;8.90;6.70;;;;;;;11.48;84.51;98335.88;103530;1303;24022;-29
2022/04/25 09:12:45;;;;;;;7.90;5.90;;;;;;;11.61;83.73;98342.66;103510;1303;25946;-27
2022/04/25 09:15:18;;;;;;;6.10;4.60;;;;;;;11.38;83.10;98343.52;103535;1303;25470;-29
2022/04/25 09:22:28;;;;;;;11.60;8.00;;;;;;;11.56;84.39;98345.31;103435;1303;24236;-29
2022/04/25 09:25:08;;;;;;;10.40;5.60;;;;;;;11.38;83.41;98351.14;103499;1303;23747;-29
2022/04/25 09:27:38;;;;;;;10.40;7.90;;;;;;;11.55;83.75;98351.82;103535;1303;23599;-27
2022/04/25 09:30:12;;;;;;;5.90;5.30;;;;;;;11.76;82.99;98351.32;103494;1303;22632;-25
2022/04/25 09:32:41;;;;;;;6.50;5.50;;;;;;;11.83;81.89;98352.66;103516;1303;23748;-29
2022/04/25 09:35:17;;;;;;;5.80;5.00;;;;;;;11.79;80.62;98358.11;103513;1303;23974;-25
2022/04/25 09:37:47;;;;;;;10.10;7.10;;;;;;;11.52;82.53;98360.55;103505;1303;24214;-29
2022/04/25 09:40:19;;;;;;;8.40;6.30;;;;;;;11.23;83.72;98362.13;103539;1303;24300;-25
2022/04/25 09:43:03;;;;;;;10.40;7.80;;;;;;;11.35;84.34;98363.22;103498;1303;22501;-25
2022/04/25 09:45:33;;;;;;;6.50;5.10;;;;;;;11.48;83.94;98364.90;103508;1303;24241;-29
2022/04/25 09:48:07;;;;;;;9.20;6.70;;;;;;;11.48;83.64;98367.67;103543;1303;24208;-25
2022/04/25 09:50:38;;;;;;;8.30;7.20;;;;;;;11.64;82.94;98370.23;103536;1303;22630;-24
2022/04/25 09:53:08;;;;;;;8.90;7.20;;;;;;;11.62;82.70;98369.86;103528;1303;24404;-29
2022/04/25 09:55:39;;;;;;;9.20;6.90;;;;;;;11.79;82.93;98370.36;103374;1303;24261;-30
2022/04/25 09:58:17;;;;;;;15.00;6.80;;;;;;;11.73;81.72;98380.88;103546;1303;22858;-25
2022/04/25 10:00:46;;;;;;;11.20;6.70;;;;;;;11.60;82.49;98381.71;103515;1302;22513;-29
2022/04/25 10:03:16;;;;;;;10.60;6.40;;;;;;;11.56;82.68;98382.67;103576;1303;23609;-25
2022/04/25 10:05:47;;;;;;;7.40;6.60;;;;;;;11.68;81.12;98383.36;103519;1303;23602;-29
2022/04/25 10:08:17;;;;;;;9.70;6.40;;;;;;;11.68;80.55;98377.02;103520;1301;23683;-25
2022/04/25 10:10:49;;;;;;;11.70;5.50;;;;;;;11.38;82.30;98376.58;103525;1303;24359;-25
2022/04/25 10:13:17;;;;;;;9.80;6.90;;;;;;;11.61;82.03;98380.74;103521;1302;25347;-24
2022/04/25 10:15:47;;;;;;;9.60;8.00;;;;;;;11.82;81.32;98382.61;103532;1303;24348;-26
2022/04/25 10:18:15;;;;;;;9.40;8.20;;;;;;;11.76;81.57;98384.55;103520;1303;23787;-29
2022/04/25 10:20:46;;;;;;;9.20;8.30;;;;;;;11.73;82.30;98385.92;103545;1301;23606;-31
2022/04/25 10:23:16;;;;;;;15.30;8.10;;;;;;;11.65;83.67;98384.45;103482;1303;23917;-25
2022/04/25 10:25:47;;;;;;;10.00;7.90;;;;;;;11.69;84.20;98388.66;103571;1303;22503;-29
2022/04/25 10:28:21;;;;;;;11.30;9.60;;;;;;;11.84;83.88;98387.46;103547;1303;23894;-27
2022/04/25 10:30:50;;;;;;;13.70;9.90;;;;;;;11.88;83.09;98391.52;103469;1303;23501;-26
2022/04/25 10:33:21;;;;;;;12.00;8.50;;;;;;;11.75;83.23;98391.39;103519;1303;22734;-29
2022/04/25 10:35:51;;;;;;;15.80;11.10;;;;;;;11.65;84.22;98396.94;103516;1303;25929;-25
2022/04/25 10:38:47;;;;;;;16.80;9.30;;;;;;;11.56;84.68;98398.73;103508;1303;25009;-25
2022/04/25 10:46:26;;;;;;;14.30;10.50;;;;;;;10.81;86.76;98413.73;103559;1303;24486;-27
2022/04/25 10:49:03;;;;;;;20.80;10.70;;;;;;;10.63;87.40;98416.75;103563;1303;24499;-24
2022/04/25 10:51:41;;;;;;;14.50;10.00;;;;;;;10.32;88.75;98421.20;103501;1303;25088;-29
2022/04/25 10:54:12;;;;;;;18.70;11.80;;;;;;;10.19;90.69;98421.02;103688;1303;26175;-27
2022/04/25 10:56:48;;;;;;;22.00;14.40;;;;;;;10.27;90.67;98423.52;103482;1301;22770;-27
2022/04/25 10:59:21;;;;;;;15.00;9.30;;;;;;;10.19;90.74;98423.83;103504;1303;22655;-29
2022/04/25 11:01:51;;;;;;;16.90;11.30;;;;;;;10.13;91.89;98426.36;103466;1303;24329;-25
2022/04/25 11:04:20;;;;;;;38.50;13.70;;;;;;;10.26;91.50;98432.92;103567;1303;24230;-24
2022/04/25 11:06:56;;;;;;;19.20;11.80;;;;;;;10.32;90.64;98434.74;103563;1303;23757;-28
2022/04/25 11:09:35;;;;;;;16.70;8.50;;;;;;;10.24;90.65;98438.91;103524;1302;22602;-24
2022/04/25 11:12:04;;;;;;;12.40;8.70;;;;;;;10.02;92.24;98437.62;103562;1303;23861;-30
2022/04/25 11:14:34;;;;;;;14.10;9.30;;;;;;;10.12;91.90;98442.87;103564;1302;23527;-25
2022/04/25 11:17:06;;;;;;;28.40;12.60;;;;;;;10.18;92.03;98442.63;103548;1303;24193;-29
2022/04/25 11:19:42;;;;;;;14.50;8.50;;;;;;;10.20;91.89;98447.48;103532;1302;24211;-26
2022/04/25 11:22:18;;;;;;;9.50;7.40;;;;;;;10.25;92.12;98451.73;103519;1303;24992;-29
2022/04/25 11:24:47;;;;;;;12.10;8.30;;;;;;;10.04;92.61;98456.42;103519;1303;22822;-31
2022/04/25 11:27:18;;;;;;;14.70;11.20;;;;;;;10.00;92.87;98459.17;103496;1303;23571;-29
2022/04/25 11:30:10;;;;;;;13.10;9.40;;;;;;;9.97;92.31;98461.13;103624;1303;23829;-29
2022/04/25 11:32:41;;;;;;;13.20;7.80;;;;;;;9.91;92.26;98466.28;103528;1303;24223;-29
2022/04/25 11:35:10;;;;;;;17.20;8.90;;;;;;;9.92;92.75;98466.65;103532;1303;25090;-25
2022/04/25 11:37:39;;;;;;;18.00;10.30;;;;;;;9.91;93.11;98473.88;103377;1303;24281;-29
2022/04/25 11:40:09;;;;;;;15.00;8.80;;;;;;;9.95;92.93;98475.92;103563;1303;22564;-29
2022/04/25 11:42:38;;;;;;;10.90;7.80;;;;;;;10.00;92.63;98478.86;103536;1302;25111;-29
2022/04/25 11:45:07;;;;;;;10.30;7.70;;;;;;;9.94;92.23;98483.10;103488;1303;23849;-31
2022/04/25 11:47:36;;;;;;;15.80;7.40;;;;;;;9.72;93.37;98483.91;103580;1303;23859;-29
2022/04/25 11:50:07;;;;;;;7.60;6.20;;;;;;;9.68;94.07;98492.67;103509;1302;24356;-29
2022/04/25 11:52:44;;;;;;;9.20;7.10;;;;;;;9.57;93.77;98494.66;103486;1302;25305;-29
2022/04/25 11:55:15;;;;;;;13.20;8.20;;;;;;;9.37;94.85;98491.91;103558;1301;25060;-28
2022/04/25 11:57:45;;;;;;;11.20;6.70;;;;;;;9.42;94.37;98494.96;103509;1303;24999;-31
2022/04/25 12:00:16;;;;;;;11.70;6.50;;;;;;;9.35;95.17;98497.54;103593;1303;23812;-31
2022/04/25 12:02:45;;;;;;;11.10;7.70;;;;;;;9.30;95.25;98498.54;103487;1303;24309;-27
2022/04/25 12:05:25;;;;;;;8.90;7.10;;;;;;;9.35;94.94;98497.50;103547;1303;24246;-29
2022/04/25 12:15:48;;;;;;;11.40;7.20;;;;;;;9.15;96.46;98516.02;103259;1303;334414;-29
2022/04/25 12:18:23;;;;;;;14.70;7.00;;;;;;;9.22;97.27;98517.68;103525;1303;24301;-29